createdAt,value
2022-08-05T00:03:20.522Z,3.17
2022-08-05T00:08:34.865Z,0.73
2022-08-05T00:13:41.782Z,0.90
2022-08-05T00:18:49.780Z,0.50
2022-08-05T00:24:10.008Z,0.60
2022-08-05T00:29:14.859Z,0.50
2022-08-05T00:34:54.082Z,0.93
2022-08-05T00:39:57.325Z,0.50
2022-08-05T00:45:03.017Z,0.50
2022-08-05T00:50:09.428Z,1.73
2022-08-05T00:55:13.245Z,0.97
2022-08-05T01:00:19.900Z,0.77
2022-08-05T01:05:27.492Z,0.70
2022-08-05T01:10:37.932Z,1.13
2022-08-05T01:15:47.801Z,1.13
2022-08-05T01:21:05.021Z,0.60
2022-08-05T01:26:27.796Z,0.30
2022-08-05T01:31:42.745Z,0.87
2022-08-05T01:36:54.835Z,0.47
2022-08-05T01:41:59.795Z,0.40
2022-08-05T01:47:06.806Z,0.47
2022-08-05T01:52:18.058Z,0.90
2022-08-05T01:58:13.576Z,0.50
2022-08-05T02:02:56.107Z,0.50
2022-08-05T02:08:01.662Z,0.60
2022-08-05T02:13:16.284Z,0.90
2022-08-05T02:18:33.341Z,0.97
2022-08-05T02:23:42.164Z,0.50
2022-08-05T02:28:47.459Z,0.80
2022-08-05T02:33:59.198Z,0.70
2022-08-05T02:39:08.661Z,1.13
2022-08-05T02:44:13.823Z,0.87
2022-08-05T02:49:20.200Z,0.70
2022-08-05T02:54:35.026Z,1.00
2022-08-05T02:59:50.377Z,2.13
2022-08-05T03:04:59.204Z,0.90
2022-08-05T03:10:03.289Z,0.97
2022-08-05T03:15:09.769Z,0.63
2022-08-05T03:20:17.500Z,0.73
2022-08-05T03:25:33.145Z,0.57
2022-08-05T03:30:49.383Z,1.17
2022-08-05T03:35:56.092Z,0.77
2022-08-05T03:41:00.743Z,0.57
2022-08-05T03:46:12.245Z,0.73
2022-08-05T03:52:37.263Z,0.80
2022-08-05T03:56:48.200Z,0.63
2022-08-05T04:01:58.683Z,0.53
2022-08-05T04:07:06.064Z,0.67
2022-08-05T04:12:24.445Z,1.70
2022-08-05T04:17:55.546Z,1.50
2022-08-05T04:22:54.173Z,1.90
2022-08-05T04:28:00.627Z,1.10
2022-08-05T04:33:09.221Z,1.50
2022-08-05T04:38:15.473Z,2.23
2022-08-05T04:43:21.997Z,1.37
2022-08-05T04:48:27.917Z,2.07
2022-08-05T04:53:35.523Z,1.00
2022-08-05T04:58:39.189Z,1.03
2022-08-05T05:03:42.903Z,0.80
2022-08-05T05:08:50.106Z,1.10
2022-08-05T05:13:55.274Z,1.53
2022-08-05T05:19:18.805Z,1.13
2022-08-05T05:24:56.158Z,1.20
2022-08-05T05:30:04.129Z,1.10
2022-08-05T05:35:09.351Z,1.70
2022-08-05T05:40:17.577Z,1.87
2022-08-05T05:45:24.733Z,2.27
2022-08-05T05:50:28.661Z,2.97
2022-08-05T05:55:52.044Z,2.43
2022-08-05T06:01:02.049Z,2.27
2022-08-05T06:06:16.151Z,2.03
2022-08-05T06:11:21.210Z,2.27
2022-08-05T06:16:28.431Z,2.63
2022-08-05T06:21:37.590Z,2.23
2022-08-05T06:26:51.322Z,2.80
2022-08-05T06:31:56.091Z,3.00
2022-08-05T06:37:03.311Z,3.53
2022-08-05T06:42:08.533Z,3.53
2022-08-05T06:48:12.455Z,3.67
2022-08-05T06:52:38.439Z,3.23
2022-08-05T06:58:03.069Z,3.63
2022-08-05T07:03:09.766Z,3.83
2022-08-05T07:08:13.742Z,3.30
2022-08-05T07:13:58.227Z,3.43
2022-08-05T07:18:59.862Z,3.10
2022-08-05T07:24:03.481Z,3.87
2022-08-05T07:29:16.785Z,4.63
2022-08-05T07:34:21.605Z,4.03
2022-08-05T07:40:04.339Z,4.83
2022-08-05T07:44:57.504Z,4.23
2022-08-05T07:50:06.551Z,5.20
2022-08-05T07:55:44.440Z,6.93
2022-08-05T08:00:36.354Z,6.83
2022-08-05T08:05:41.857Z,7.50
2022-08-05T08:10:49.126Z,7.63
2022-08-05T08:16:34.424Z,6.57
2022-08-05T08:21:17.950Z,6.50
2022-08-05T08:26:26.728Z,7.63
2022-08-05T08:31:34.446Z,6.80
2022-08-05T08:36:48.819Z,7.07
2022-08-05T08:41:59.863Z,4.93
2022-08-05T08:47:21.780Z,4.30
2022-08-05T08:52:34.423Z,3.73
2022-08-05T08:57:42.348Z,3.33
2022-08-05T09:03:06.467Z,2.70
2022-08-05T09:08:10.455Z,3.07
2022-08-05T09:13:15.760Z,2.93
2022-08-05T09:18:21.638Z,2.83
2022-08-05T09:23:27.269Z,2.70
2022-08-05T09:28:42.289Z,2.00
2022-08-05T09:33:51.065Z,1.60
2022-08-05T09:38:59.422Z,1.43
2022-08-05T09:44:03.598Z,1.47
2022-08-05T09:49:40.359Z,1.57
2022-08-05T09:54:59.654Z,1.40
2022-08-05T10:00:13.005Z,1.10
2022-08-05T10:05:21.739Z,1.13
2022-08-05T10:10:37.383Z,0.93
2022-08-05T10:15:41.751Z,1.50
2022-08-05T10:20:49.776Z,1.87
2022-08-05T10:25:53.569Z,1.43
2022-08-05T10:32:53.760Z,1.10
2022-08-05T10:36:26.035Z,0.80
2022-08-05T10:41:47.167Z,1.00
2022-08-05T10:46:54.291Z,0.60
2022-08-05T10:52:02.539Z,0.50
2022-08-05T10:57:06.999Z,0.57
2022-08-05T11:02:14.404Z,0.50
2022-08-05T11:08:02.967Z,0.40
2022-08-05T11:13:57.627Z,0.40
2022-08-05T11:20:10.165Z,0.70
2022-08-05T11:26:04.136Z,0.40
2022-08-05T11:31:58.375Z,0.50
2022-08-05T11:36:54.665Z,0.67
2022-08-05T11:42:04.665Z,0.53
2022-08-05T11:47:12.044Z,1.13
2022-08-05T11:52:32.500Z,0.83
2022-08-05T11:57:39.398Z,0.90
2022-08-05T12:03:29.499Z,0.73
2022-08-05T12:08:50.939Z,1.27
2022-08-05T12:13:59.413Z,0.60
2022-08-05T12:19:04.386Z,0.50
2022-08-05T12:24:14.109Z,0.43
2022-08-05T12:29:23.828Z,0.77
2022-08-05T12:34:28.569Z,0.70
2022-08-05T12:39:38.772Z,0.60
2022-08-05T12:44:45.905Z,0.70
2022-08-05T12:50:04.814Z,0.50
2022-08-05T12:55:25.208Z,0.40
2022-08-05T13:02:02.432Z,0.53
2022-08-05T13:05:55.097Z,0.67
2022-08-05T13:11:01.909Z,0.40
2022-08-05T13:16:15.532Z,0.73
2022-08-05T13:21:20.625Z,0.43
2022-08-05T13:26:29.878Z,0.67
2022-08-05T13:32:03.967Z,0.60
2022-08-05T13:37:00.199Z,0.53
2022-08-05T13:42:03.874Z,0.60
2022-08-05T13:47:10.930Z,0.77
2022-08-05T13:52:35.441Z,0.50
2022-08-05T13:57:51.417Z,0.90
2022-08-05T14:02:57.851Z,0.50
2022-08-05T14:08:08.684Z,0.73
2022-08-05T14:13:25.367Z,0.67
2022-08-05T14:18:31.461Z,0.60
2022-08-05T14:23:37.292Z,0.80
2022-08-05T14:28:52.202Z,0.90
2022-08-05T14:34:00.133Z,1.00
2022-08-05T14:39:05.747Z,0.63
2022-08-05T14:44:20.503Z,0.60
2022-08-05T14:49:56.474Z,0.47
2022-08-05T14:54:53.326Z,0.50
2022-08-05T14:59:57.093Z,0.67
2022-08-05T15:05:08.533Z,0.80
2022-08-05T15:10:17.046Z,0.50
2022-08-05T15:15:53.809Z,0.50
2022-08-05T15:20:46.122Z,0.60
2022-08-05T15:25:53.755Z,1.17
2022-08-05T15:30:59.458Z,0.57
2022-08-05T15:36:17.798Z,0.40
2022-08-05T15:41:55.207Z,0.40
2022-08-05T15:46:51.617Z,1.73
2022-08-05T15:52:13.061Z,0.50
2022-08-05T15:57:20.163Z,0.40
2022-08-05T16:02:25.440Z,0.50
2022-08-05T16:07:30.853Z,0.60
2022-08-05T16:12:34.459Z,0.40
2022-08-05T16:17:38.093Z,2.07
2022-08-05T16:22:43.901Z,0.40
2022-08-05T16:28:02.244Z,0.60
2022-08-05T16:33:09.338Z,0.60
2022-08-05T16:38:18.516Z,0.30
2022-08-05T16:43:31.222Z,0.27
2022-08-05T16:48:35.548Z,0.20
2022-08-05T16:54:03.049Z,0.30
2022-08-05T16:59:10.178Z,0.30
2022-08-05T17:04:15.097Z,0.33
2022-08-05T17:09:20.170Z,0.30
2022-08-05T17:14:37.343Z,0.30
2022-08-05T17:19:43.749Z,0.30
2022-08-05T17:24:57.730Z,0.27
2022-08-05T17:30:04.670Z,0.23
2022-08-05T17:35:20.635Z,1.27
2022-08-05T17:40:26.114Z,0.60
2022-08-05T17:45:38.686Z,0.97
2022-08-05T17:50:43.023Z,0.63
2022-08-05T17:55:47.998Z,1.07
2022-08-05T18:00:52.589Z,0.30
2022-08-05T18:06:04.363Z,0.63
2022-08-05T18:11:09.987Z,0.30
2022-08-05T18:16:27.724Z,0.30
2022-08-05T18:22:07.479Z,0.43
2022-08-05T18:26:56.982Z,0.40
2022-08-05T18:32:01.895Z,0.40
2022-08-05T18:37:12.364Z,1.53
2022-08-05T18:42:17.767Z,0.23
2022-08-05T18:47:22.867Z,0.20
2022-08-05T18:52:35.721Z,0.60
2022-08-05T18:57:43.677Z,0.50
2022-08-05T19:03:03.146Z,0.47
2022-08-05T19:08:13.607Z,0.63
2022-08-05T19:13:20.382Z,1.00
2022-08-05T19:18:24.569Z,0.83
2022-08-05T19:24:05.087Z,0.53
2022-08-05T19:28:56.840Z,0.40
2022-08-05T19:34:00.662Z,0.40
2022-08-05T19:39:05.734Z,0.43
2022-08-05T19:44:13.677Z,0.40
2022-08-05T19:49:18.090Z,1.03
2022-08-05T19:54:30.946Z,0.50
2022-08-05T19:59:55.916Z,0.20
2022-08-05T20:05:04.678Z,0.20
2022-08-05T20:10:13.117Z,0.20
2022-08-05T20:15:48.077Z,1.13
2022-08-05T20:20:45.699Z,0.57
2022-08-05T20:25:52.338Z,0.40
2022-08-05T20:30:58.621Z,0.30
2022-08-05T20:36:03.013Z,0.40
2022-08-05T20:41:08.210Z,0.20
2022-08-05T20:46:18.479Z,0.20
2022-08-05T20:51:28.721Z,0.30
2022-08-05T20:56:42.267Z,0.30
2022-08-05T21:01:47.874Z,0.20
2022-08-05T21:06:54.150Z,0.20
2022-08-05T21:12:07.704Z,0.27
2022-08-05T21:17:16.717Z,0.23
2022-08-05T21:22:23.533Z,0.27
2022-08-05T21:27:27.998Z,0.30
2022-08-05T21:32:43.682Z,0.40
2022-08-05T21:37:53.461Z,0.40
2022-08-05T21:42:58.998Z,0.30
2022-08-05T21:48:06.667Z,0.30
2022-08-05T21:53:16.591Z,1.60
2022-08-05T21:58:30.687Z,0.80
2022-08-05T22:03:48.896Z,0.40
2022-08-05T22:08:56.521Z,0.30
2022-08-05T22:14:32.408Z,0.30
2022-08-05T22:20:01.317Z,0.20
2022-08-05T22:25:08.764Z,0.30
2022-08-05T22:30:22.080Z,0.40
2022-08-05T22:35:27.081Z,0.30
2022-08-05T22:40:55.205Z,0.30
2022-08-05T22:45:59.211Z,0.20
2022-08-05T22:51:08.345Z,0.30
2022-08-05T22:56:30.768Z,0.20
2022-08-05T23:02:03.815Z,0.20
2022-08-05T23:07:00.270Z,0.23
2022-08-05T23:12:05.338Z,0.97
2022-08-05T23:17:32.774Z,0.20
2022-08-05T23:22:42.237Z,0.20
2022-08-05T23:28:00.550Z,0.30
2022-08-05T23:33:04.667Z,0.27
2022-08-05T23:38:12.070Z,0.23
2022-08-05T23:43:25.286Z,0.20
2022-08-05T23:48:39.386Z,0.47
2022-08-05T23:53:47.298Z,0.20
2022-08-05T23:58:50.868Z,0.30
